Flight Track Log - Related Links

Times and Time Zones

All times are in EDT time to prevent confusion due to time zone crossing. See the JBU1329 flight status page for this flight to view local times or setup timezone preferences in your user account.

Time Position Orientation Groundspeed Altitude Reporting Facility
EDT Latitude Longitude Course Direction KTS MPH feet Rate Location/Type
Sun 10:20:18 AM 42.3290 -71.0100 146° Southeast 183 211 1,800  Level FlightAware ADS-B
Sun 10:20:43 AM 42.3150 -70.9830 125° Southeast 219 252 2,500 1,920 Climbing FlightAware ADS-B
Sun 10:21:08 AM 42.3070 -70.9430 105° East 275 316 3,400 2,667 Climbing FlightAware ADS-B
Sun 10:21:28 AM 42.3120 -70.9110 78° East 280 322 4,500 3,600 Climbing FlightAware ADS-B
Sun 10:21:53 AM 42.3200 -70.8700 75° East 286 329 6,100 3,686 Climbing FlightAware ADS-B
Sun 10:22:38 AM 42.3270 -70.7810 84° East 317 365 8,800 3,500 Climbing FlightAware ADS-B
Sun 10:22:53 AM 42.3170 -70.7540 117° Southeast 319 367 9,600 3,000 Climbing FlightAware ADS-B
Sun 10:23:08 AM 42.3000 -70.7330 138° Southeast 315 362 10,300 2,000 Climbing FlightAware ADS-B
Sun 10:23:23 AM 42.2810 -70.7220 157° South 332 382 10,600 1,200 Climbing FlightAware ADS-B
Sun 10:23:33 AM 42.2650 -70.7200 175° South 338 389 10,800 2,400 Climbing FlightAware ADS-B
Sun 10:24:03 AM 42.2200 -70.7330 192° South 336 387 12,200 3,067 Climbing FlightAware ADS-B
Sun 10:24:18 AM 42.2000 -70.7510 214° Southwest 326 375 13,100 2,800 Climbing FlightAware ADS-B
Sun 10:24:33 AM 42.1860 -70.7740 231° Southwest 325 374 13,600 2,000 Climbing FlightAware ADS-B
Sun 10:25:24 AM 42.1680 -70.8790 257° West 350 403 15,300 2,147 Climbing FlightAware ADS-B
Sun 10:26:08 AM 42.1560 -70.9730 260° West 363 418 17,000 2,429 Climbing FlightAware ADS-B
Sun 10:26:48 AM 42.1460 -71.0600 261° West 363 418 18,700 2,400 Climbing FlightAware ADS-B
Sun 10:27:33 AM 42.1330 -71.1650 261° West 372 428 20,400 2,047 Climbing FlightAware ADS-B
Sun 10:28:13 AM 42.1230 -71.2530 261° West 380 437 21,600 1,833 Climbing FlightAware ADS-B
Sun 10:28:45 AM 42.1130 -71.3360 261° West 387 445 22,600 1,705 Climbing FlightAware ADS-B
Sun 10:29:41 AM 42.0960 -71.4750 261° West 401 461 24,100 1,541 Climbing FlightAware ADS-B
Sun 10:30:34 AM 42.0610 -71.5940 248° West 410 472 25,400 1,435 Climbing FlightAware ADS-B
Sun 10:31:13 AM 42.0290 -71.6770 243° Southwest 417 480 26,300 1,215 Climbing FlightAware ADS-B
Sun 10:31:53 AM 41.9920 -71.7740 243° Southwest 424 488 27,000 1,059 Climbing FlightAware ADS-B
Sun 10:32:38 AM 41.9530 -71.8760 243° Southwest 432 497 27,800 652 Climbing FlightAware ADS-B
Sun 10:33:25 AM 41.9060 -71.9980 243° Southwest 435 501 28,000 117 Climbing FlightAware ADS-B
Sun 10:34:21 AM 41.8600 -72.1170 243° Southwest 437 503 28,000  Level FlightAware ADS-B
Sun 10:35:03 AM 41.8180 -72.2270 243° Southwest 437 503 28,000  Level FlightAware ADS-B
Sun 10:35:44 AM 41.7770 -72.3320 242° Southwest 437 503 28,000  Level FlightAware ADS-B
Sun 10:36:19 AM 41.7590 -72.3770 242° Southwest 437 503 28,000  Level FlightAware ADS-B
Sun 10:37:23 AM 41.6840 -72.5690 242° Southwest 440 506 28,000  Level FlightAware ADS-B
Sun 10:38:03 AM 41.6450 -72.6680 242° Southwest 440 506 28,000  Level FlightAware ADS-B
Sun 10:38:48 AM 41.6090 -72.7610 243° Southwest 439 505 28,000  Level FlightAware ADS-B
Sun 10:39:15 AM 41.5780 -72.8390 242° Southwest 435 501 28,000  Level FlightAware ADS-B
Sun 10:39:55 AM 41.5410 -72.9330 242° Southwest 436 502 28,000 73 Level FlightAware ADS-B
Sun 10:40:37 AM 41.5010 -73.0320 242° Southwest 435 501 28,100 837 Climbing FlightAware ADS-B
Sun 10:41:21 AM 41.4600 -73.1370 243° Southwest 429 494 29,200 2,079 Climbing FlightAware ADS-B
Sun 10:42:18 AM 41.4050 -73.2630 240° Southwest 403 464 31,600 1,768 Climbing FlightAware ADS-B
Sun 10:42:56 AM 41.3650 -73.3390 235° Southwest 395 455 32,000 296 Climbing FlightAware ADS-B
Sun 10:43:39 AM 41.3200 -73.4240 235° Southwest 398 458 32,000  Level FlightAware ADS-B
Sun 10:44:21 AM 41.2750 -73.5080 235° Southwest 400 460 32,000  Level FlightAware ADS-B
Sun 10:45:02 AM 41.2340 -73.5850 235° Southwest 400 460 32,000  Level FlightAware ADS-B
Sun 10:46:03 AM 41.1660 -73.7100 234° Southwest 401 461 32,000  Level FlightAware ADS-B
Sun 10:46:35 AM 41.1300 -73.7780 235° Southwest 402 463 32,000  Level FlightAware ADS-B
Sun 10:47:08 AM 41.0981 -73.8366 234° Southwest 402 463 32,000  Level FlightAware ADS-B
Sun 10:47:45 AM 41.0540 -73.9184 234° Southwest 404 465 32,000  Level FlightAware ADS-B
Sun 10:48:23 AM 41.0121 -73.9956 234° Southwest 405 466 32,000  Level FlightAware ADS-B
Sun 10:48:35 AM 40.9996 -74.0187 234° Southwest 405 466 32,000  Level FlightAware ADS-B
Sun 10:48:53 AM 40.9796 -74.0555 234° Southwest 404 465 32,000  Level FlightAware ADS-B
Sun 10:49:17 AM 40.9531 -74.1042 234° Southwest 404 465 32,000  Level FlightAware ADS-B
Sun 10:49:23 AM 40.9467 -74.1157 234° Southwest 405 466 32,000 -1,059 Level FlightAware ADS-B
Sun 10:49:51 AM 40.9161 -74.1720 234° Southwest 402 463 31,400 -1,313 Descending FlightAware ADS-B
Sun 10:49:55 AM 40.9117 -74.1800 234° Southwest 402 463 31,300 -1,886 Descending FlightAware ADS-B
Sun 10:50:26 AM 40.8789 -74.2400 234° Southwest 406 467 30,300 -1,886 Descending FlightAware ADS-B
Sun 10:50:30 AM 40.8733 -74.2503 234° Southwest 403 464 30,200 -1,875 Descending FlightAware ADS-B
Sun 10:50:58 AM 40.8428 -74.3060 234° Southwest 412 474 29,300 -2,049 Descending FlightAware ADS-B
Sun 10:51:11 AM 40.8283 -74.3326 234° Southwest 415 478 28,800 -2,000 Descending FlightAware ADS-B
Sun 10:51:28 AM 40.8086 -74.3683 234° Southwest 415 478 28,300 -1,000 Descending FlightAware ADS-B
Sun 10:51:59 AM 40.7735 -74.4316 234° Southwest 422 486 28,000 -290 Descending FlightAware ADS-B
Sun 10:52:30 AM 40.7355 -74.4939 231° Southwest 420 483 28,000  Level FlightAware ADS-B
Sun 10:53:03 AM 40.6979 -74.5542 231° Southwest 389 448 28,000 -380 Level FlightAware ADS-B
Sun 10:53:49 AM 40.6500 -74.6310 231° Southwest 349 402 27,500 -886 Descending FlightAware ADS-B
Sun 10:54:31 AM 40.6070 -74.7020 231° Southwest 349 402 26,700 -1,200 Descending FlightAware ADS-B
Sun 10:55:09 AM 40.5680 -74.7630 230° Southwest 353 406 25,900 -1,200 Descending FlightAware ADS-B
Sun 10:55:56 AM 40.5150 -74.8380 227° Southwest 353 406 25,000 -1,227 Descending FlightAware ADS-B
Sun 10:56:37 AM 40.4750 -74.9050 232° Southwest 348 400 24,100 -1,245 Descending FlightAware ADS-B
Sun 10:56:49 AM 40.4710 -74.9310 259° West 345 397 23,900 -1,286 Descending FlightAware ADS-B
Sun 10:57:33 AM 40.4630 -75.0210 263° West 338 389 22,900 -1,465 Descending FlightAware ADS-B
Sun 10:58:15 AM 40.4560 -75.1080 264° West 340 391 21,800 -1,543 Descending FlightAware ADS-B
Sun 10:58:43 AM 40.4440 -75.1610 253° West 337 388 21,100 -1,462 Descending FlightAware ADS-B
Sun 10:59:33 AM 40.4018 -75.2445 236° Southwest 331 381 19,900 -1,481 Descending FlightAware ADS-B
Sun 11:00:04 AM 40.3750 -75.2980 237° Southwest 329 379 19,100 -1,448 Descending FlightAware ADS-B
Sun 11:00:31 AM 40.3524 -75.3431 237° Southwest 326 375 18,500 -1,355 Descending FlightAware ADS-B
Sun 11:00:35 AM 40.3487 -75.3489 230° Southwest 325 374 18,400 -1,714 Descending FlightAware ADS-B
Sun 11:00:38 AM 40.3449 -75.3541 226° Southwest 327 376 18,300 -1,714 Descending FlightAware ADS-B
Sun 11:00:42 AM 40.3410 -75.3584 220° Southwest 328 377 18,200 -1,500 Descending FlightAware ADS-B
Sun 11:00:46 AM 40.3354 -75.3635 215° Southwest 329 379 18,100 -343 Descending FlightAware ADS-B
Sun 11:01:17 AM 40.2946 -75.3936 209° Southwest 338 389 18,000 -98 Descending FlightAware ADS-B
Sun 11:01:47 AM 40.2501 -75.4265 209° Southwest 370 426 18,000  Level FlightAware ADS-B
Sun 11:02:18 AM 40.2044 -75.4603 209° Southwest 373 429 18,000  Level FlightAware ADS-B
Sun 11:02:48 AM 40.1588 -75.4938 209° Southwest 374 430 18,000  Level FlightAware ADS-B
Sun 11:03:35 AM 40.0900 -75.5450 210° Southwest 360 414 18,000  Level FlightAware ADS-B
Sun 11:04:17 AM 40.0310 -75.5880 209° Southwest 334 384 18,000  Level FlightAware ADS-B
Sun 11:05:01 AM 39.9720 -75.6310 209° Southwest 335 386 18,000 -349 Level FlightAware ADS-B
Sun 11:05:43 AM 39.9160 -75.6760 212° Southwest 330 380 17,500 -1,097 Descending FlightAware ADS-B
Sun 11:06:34 AM 39.8730 -75.7560 235° Southwest 326 375 16,300 -1,408 Descending FlightAware ADS-B
Sun 11:07:21 AM 39.8330 -75.8340 236° Southwest 321 369 15,200 -1,416 Descending FlightAware ADS-B
Sun 11:08:03 AM 39.8000 -75.8970 236° Southwest 302 348 14,200 -1,483 Descending FlightAware ADS-B
Sun 11:08:50 AM 39.7617 -75.9708 236° Southwest 309 356 13,000 -1,538 Descending FlightAware ADS-B
Sun 11:09:21 AM 39.7373 -76.0175 236° Southwest 306 352 12,200 -1,180 Descending FlightAware ADS-B
Sun 11:09:51 AM 39.7137 -76.0623 236° Southwest 289 333 11,800 -400 Descending FlightAware ADS-B
Sun 11:10:21 AM 39.6916 -76.1044 236° Southwest 276 318 11,800  Level FlightAware ADS-B
Sun 11:10:45 AM 39.6746 -76.1367 236° Southwest 276 318 11,800 -167 Level FlightAware ADS-B
Sun 11:10:57 AM 39.6672 -76.1535 240° Southwest 275 316 11,700 -818 Descending FlightAware ADS-B
Sun 11:11:29 AM 39.6507 -76.2003 245° Southwest 261 300 11,200 -1,553 Descending FlightAware ADS-B
Sun 11:12:22 AM 39.6250 -76.2730 245° Southwest 263 303 9,500 -1,902 Descending FlightAware ADS-B
Sun 11:12:51 AM 39.6110 -76.3150 247° West 265 305 8,600 -1,627 Descending FlightAware ADS-B
Sun 11:13:21 AM 39.5960 -76.3610 247° West 265 305 7,900 -1,116 Descending FlightAware ADS-B
Sun 11:13:34 AM 39.5930 -76.3710 249° West 262 302 7,800 -316 Descending FlightAware ADS-B
Sun 11:13:59 AM 39.5780 -76.4160 247° West 266 306 7,700 -873 Descending FlightAware ADS-B
Sun 11:14:29 AM 39.5650 -76.4570 248° West 260 299 7,000 -1,574 Descending FlightAware ADS-B
Sun 11:15:00 AM 39.5330 -76.4860 215° Southwest 261 300 6,100 -1,500 Descending FlightAware ADS-B
Sun 11:15:25 AM 39.5080 -76.4810 171° South 264 304 5,600 -1,440 Descending FlightAware ADS-B
Sun 11:15:50 AM 39.4740 -76.4700 166° South 264 304 4,900 -1,200 Descending FlightAware ADS-B
Sun 11:16:05 AM 39.4550 -76.4640 166° South 266 306 4,800 -77 Descending FlightAware ADS-B
Sun 11:17:08 AM 39.3790 -76.4420 167° South 277 319 4,800 -70 Level FlightAware ADS-B
Sun 11:17:31 AM 39.3510 -76.4340 168° South 277 319 4,700 -545 Descending FlightAware ADS-B
Sun 11:18:03 AM 39.3050 -76.4210 168° South 265 305 4,300 -682 Descending FlightAware ADS-B
Sun 11:18:15 AM 39.2940 -76.4180 168° South 264 304 4,200 -686 Descending FlightAware ADS-B
Sun 11:18:38 AM 39.2690 -76.4110 168° South 262 302 3,900 -453 Descending FlightAware ADS-B
Sun 11:19:08 AM 39.2270 -76.4000 169° South 264 304 3,800 -146 Descending FlightAware ADS-B
Sun 11:19:19 AM 39.2140 -76.3980 173° South 272 313 3,800  Level FlightAware ADS-B
Sun 11:19:48 AM 39.1790 -76.4140 200° South 259 298 3,800  Level FlightAware ADS-B
Sun 11:20:21 AM 39.1450 -76.4380 209° Southwest 243 280 3,800  Level FlightAware ADS-B
Sun 11:20:47 AM 39.1220 -76.4540 208° Southwest 219 252 3,800 -118 Level FlightAware ADS-B
Sun 11:21:12 AM 39.0980 -76.4710 209° Southwest 218 251 3,700 -400 Descending FlightAware ADS-B
Sun 11:21:32 AM 39.0840 -76.4820 211° Southwest 208 239 3,500 -1,021 Descending FlightAware ADS-B
Sun 11:21:59 AM 39.0570 -76.5000 207° Southwest 207 238 2,900 -873 Descending FlightAware ADS-B
Sun 11:22:27 AM 39.0370 -76.5150 210° Southwest 205 236 2,700 -889 Descending FlightAware ADS-B
Sun 11:22:53 AM 39.0140 -76.5350 214° Southwest 214 246 2,100 -1,317 Descending FlightAware ADS-B
Sun 11:23:08 AM 39.0090 -76.5490 245° Southwest 216 249 1,800 -450 Descending FlightAware ADS-B
Sun 11:23:33 AM 39.0160 -76.5780 287° West 194 223 1,800  Level FlightAware ADS-B

Login

Don't have an account? Register now (free) for customized features, flight alerts, and more!